Česky Dansk Deutsch English Español Suomi Français Magyar Italiano Nederlands norsk Polski Português svenska Türkçe

 

Weather

Valdivia (Chile)

04:00, 19 August 2016 (GMT)

NWNNE
WE
SWSSE
Home            
Valdivia Temuco Chapelco Puerto Montt Bariloche Aerodrome El Bolson Aerodrome Concepcion Chillan Esquel Aerodrome Neuquen Aerodrome Curico Malargue Aerodrome Paso De Indios Coyhaique San Antonio Oeste Aerodrome San Rafael Aerodrome Balmaceda Pudahuel San Carlos Puerto Madryn, CHT Trelew Aerodrome Quintero Santiago Rio Colorado

To put a weather button on your web site or blog, copy the code below and paste it into your page . The first box contains HTML code, the second UBB code.


Add to Google

Details

Wind speed:3 bf, 7 kn, 3.6 m/s, 8.1 miles/h, 13.0 km/h
Wind direction:NNW, 340°
Visibility:Greater than 10000 m, 10 km, 32800 ft, 6.2 miles
Clouds:Scattered clouds at 2600 ft, 792 m
Weather:light rain
Temperature:8°C, 46°F
Dew-point:7°C, 45°F
Atmospheric pressure:1022 hPa, 766.6 mmHg, 30.18 inHg, 1.009 atm
Relative humidity:93.4 %
METAR:SCVD 190400Z AUTO 34007KT 9999 -RA SCT026 08/07 Q1022

Shortcuts

An up-to-date overview of weather conditions all over the world. Add locations with the plus (+) sign. These shortcuts can be added to Google.

Lid van de Technetium groep

website free tracking
StatCounter NetStat W3C Validator

20-07-2018 01:01:45
astro.technetium.be money.technetium.be phote.technetium.be tafeltennistafel.technetium.be www.ligfiets.net